Terminal Aerodrome Forecast
Issued by NWS

Home | Current Version | Previous Version | Text Only | Print | Product List | Glossary On
Versions: 1 2 3 4 5 6 7 8 9 10 11 12 13 14 15
000
FTUS44 KLIX 280500
TAFMCB
TAF
KMCB 280523Z 2806/2906 22003KT P6SM SCT250
      TEMPO 2809/2813 5SM BR SCT015
     FM281430 28007KT P6SM SCT035 PROB30 2819/2823 VRB30KT 2SM TSRA
      BKN028CB
     FM290000 32005KT P6SM SCT045 BKN250=

USA.gov is the U.S. government's official web portal to all federal, state and local government web resources and services.